sensor_id;sensor_type;location;lat;lon;timestamp;temperature;humidity
975;DHT22;6115;49.296;10.602;2022-08-01T00:04:39;21.80;46.90
975;DHT22;6115;49.296;10.602;2022-08-01T00:09:40;21.70;46.80
975;DHT22;6115;49.296;10.602;2022-08-01T00:14:40;21.70;46.90
975;DHT22;6115;49.296;10.602;2022-08-01T00:19:41;21.70;46.80
975;DHT22;6115;49.296;10.602;2022-08-01T00:24:41;21.50;46.60
975;DHT22;6115;49.296;10.602;2022-08-01T00:29:42;21.50;46.70
975;DHT22;6115;49.296;10.602;2022-08-01T00:34:43;21.50;46.60
975;DHT22;6115;49.296;10.602;2022-08-01T00:39:43;21.40;46.80
975;DHT22;6115;49.296;10.602;2022-08-01T00:44:44;21.40;47.00
975;DHT22;6115;49.296;10.602;2022-08-01T00:49:44;21.30;46.50
975;DHT22;6115;49.296;10.602;2022-08-01T00:54:45;21.20;46.40
975;DHT22;6115;49.296;10.602;2022-08-01T00:59:46;21.10;46.30
975;DHT22;6115;49.296;10.602;2022-08-01T01:04:46;21.00;46.60
975;DHT22;6115;49.296;10.602;2022-08-01T01:15:30;20.80;46.70
975;DHT22;6115;49.296;10.602;2022-08-01T01:20:38;20.80;46.70
975;DHT22;6115;49.296;10.602;2022-08-01T01:30:58;20.80;47.00
975;DHT22;6115;49.296;10.602;2022-08-01T01:36:05;20.80;47.10
975;DHT22;6115;49.296;10.602;2022-08-01T01:41:06;20.80;47.00
975;DHT22;6115;49.296;10.602;2022-08-01T01:46:08;20.80;47.10
975;DHT22;6115;49.296;10.602;2022-08-01T01:51:09;20.80;47.70
975;DHT22;6115;49.296;10.602;2022-08-01T01:56:11;20.70;48.00
975;DHT22;6115;49.296;10.602;2022-08-01T02:01:15;20.60;48.40
975;DHT22;6115;49.296;10.602;2022-08-01T02:06:17;20.60;48.70
975;DHT22;6115;49.296;10.602;2022-08-01T02:11:19;20.70;49.50
975;DHT22;6115;49.296;10.602;2022-08-01T02:16:25;20.70;50.10
975;DHT22;6115;49.296;10.602;2022-08-01T02:26:50;20.60;50.50
975;DHT22;6115;49.296;10.602;2022-08-01T02:31:54;20.50;50.40
975;DHT22;6115;49.296;10.602;2022-08-01T02:36:56;20.40;50.40
975;DHT22;6115;49.296;10.602;2022-08-01T02:42:00;20.30;51.30
975;DHT22;6115;49.296;10.602;2022-08-01T02:47:03;20.20;51.90
975;DHT22;6115;49.296;10.602;2022-08-01T02:52:11;20.10;52.40
975;DHT22;6115;49.296;10.602;2022-08-01T02:57:13;20.00;52.80
975;DHT22;6115;49.296;10.602;2022-08-01T03:02:16;19.90;53.20
975;DHT22;6115;49.296;10.602;2022-08-01T03:07:17;19.80;54.30
975;DHT22;6115;49.296;10.602;2022-08-01T03:12:24;19.60;54.20
975;DHT22;6115;49.296;10.602;2022-08-01T03:17:27;19.60;54.20
975;DHT22;6115;49.296;10.602;2022-08-01T03:22:29;19.60;54.30
975;DHT22;6115;49.296;10.602;2022-08-01T03:27:30;19.40;55.40
975;DHT22;6115;49.296;10.602;2022-08-01T03:32:31;19.40;55.10
975;DHT22;6115;49.296;10.602;2022-08-01T03:37:46;19.40;55.40
975;DHT22;6115;49.296;10.602;2022-08-01T03:42:50;19.10;56.20
975;DHT22;6115;49.296;10.602;2022-08-01T03:47:58;18.90;56.70
975;DHT22;6115;49.296;10.602;2022-08-01T03:53:01;18.80;57.10
975;DHT22;6115;49.296;10.602;2022-08-01T03:58:05;18.70;57.60
975;DHT22;6115;49.296;10.602;2022-08-01T04:03:07;18.70;57.70
975;DHT22;6115;49.296;10.602;2022-08-01T04:08:08;18.70;57.90
975;DHT22;6115;49.296;10.602;2022-08-01T04:13:09;18.60;57.90
975;DHT22;6115;49.296;10.602;2022-08-01T04:18:10;18.50;58.30
975;DHT22;6115;49.296;10.602;2022-08-01T04:23:10;18.60;58.70
975;DHT22;6115;49.296;10.602;2022-08-01T04:28:13;18.50;59.30
975;DHT22;6115;49.296;10.602;2022-08-01T04:33:17;18.50;59.40
975;DHT22;6115;49.296;10.602;2022-08-01T04:38:22;18.40;59.50
975;DHT22;6115;49.296;10.602;2022-08-01T04:43:27;18.40;59.70
975;DHT22;6115;49.296;10.602;2022-08-01T04:48:28;18.60;59.70
975;DHT22;6115;49.296;10.602;2022-08-01T04:53:29;18.70;59.50
975;DHT22;6115;49.296;10.602;2022-08-01T04:58:32;18.80;59.80
975;DHT22;6115;49.296;10.602;2022-08-01T05:03:33;18.90;59.90
975;DHT22;6115;49.296;10.602;2022-08-01T05:08:34;19.00;59.60
975;DHT22;6115;49.296;10.602;2022-08-01T05:13:36;19.30;59.70
975;DHT22;6115;49.296;10.602;2022-08-01T05:18:36;19.50;58.90
975;DHT22;6115;49.296;10.602;2022-08-01T05:23:37;19.70;58.80
975;DHT22;6115;49.296;10.602;2022-08-01T05:28:37;19.80;58.90
975;DHT22;6115;49.296;10.602;2022-08-01T05:33:38;19.80;58.90
975;DHT22;6115;49.296;10.602;2022-08-01T05:38:38;19.80;58.90
975;DHT22;6115;49.296;10.602;2022-08-01T05:43:39;19.90;59.00
975;DHT22;6115;49.296;10.602;2022-08-01T05:48:40;20.00;58.40
975;DHT22;6115;49.296;10.602;2022-08-01T05:53:40;20.20;58.40
975;DHT22;6115;49.296;10.602;2022-08-01T05:58:41;20.30;57.80
975;DHT22;6115;49.296;10.602;2022-08-01T06:03:42;20.40;57.60
975;DHT22;6115;49.296;10.602;2022-08-01T06:08:42;20.30;58.10
975;DHT22;6115;49.296;10.602;2022-08-01T06:13:43;20.40;58.00
975;DHT22;6115;49.296;10.602;2022-08-01T06:18:43;20.40;57.70
975;DHT22;6115;49.296;10.602;2022-08-01T06:23:44;20.50;57.80
975;DHT22;6115;49.296;10.602;2022-08-01T06:28:45;20.60;57.60
975;DHT22;6115;49.296;10.602;2022-08-01T06:33:45;20.80;57.50
975;DHT22;6115;49.296;10.602;2022-08-01T06:38:46;21.20;57.00
975;DHT22;6115;49.296;10.602;2022-08-01T06:43:46;21.50;56.20
975;DHT22;6115;49.296;10.602;2022-08-01T06:48:47;21.60;56.00
975;DHT22;6115;49.296;10.602;2022-08-01T06:53:47;21.50;56.10
975;DHT22;6115;49.296;10.602;2022-08-01T06:58:50;21.70;56.10
975;DHT22;6115;49.296;10.602;2022-08-01T07:03:50;21.90;55.70
975;DHT22;6115;49.296;10.602;2022-08-01T07:08:52;22.00;55.80
975;DHT22;6115;49.296;10.602;2022-08-01T07:13:53;22.30;56.30
975;DHT22;6115;49.296;10.602;2022-08-01T07:18:54;22.50;54.90
975;DHT22;6115;49.296;10.602;2022-08-01T07:23:54;22.60;54.60
975;DHT22;6115;49.296;10.602;2022-08-01T07:28:55;22.60;54.20
975;DHT22;6115;49.296;10.602;2022-08-01T07:33:55;22.60;54.50
975;DHT22;6115;49.296;10.602;2022-08-01T07:38:56;22.60;54.50
975;DHT22;6115;49.296;10.602;2022-08-01T07:43:57;22.70;53.90
975;DHT22;6115;49.296;10.602;2022-08-01T07:48:57;23.00;54.10
975;DHT22;6115;49.296;10.602;2022-08-01T07:53:58;23.30;52.80
975;DHT22;6115;49.296;10.602;2022-08-01T07:58:58;23.30;52.80
975;DHT22;6115;49.296;10.602;2022-08-01T08:03:59;23.10;52.70
975;DHT22;6115;49.296;10.602;2022-08-01T08:08:59;23.10;52.60
975;DHT22;6115;49.296;10.602;2022-08-01T08:14:00;23.20;52.50
975;DHT22;6115;49.296;10.602;2022-08-01T08:19:00;23.60;51.30
975;DHT22;6115;49.296;10.602;2022-08-01T08:24:01;23.70;50.70
975;DHT22;6115;49.296;10.602;2022-08-01T08:29:21;23.70;50.20
975;DHT22;6115;49.296;10.602;2022-08-01T08:34:22;23.80;50.00
975;DHT22;6115;49.296;10.602;2022-08-01T08:39:23;24.00;49.90
975;DHT22;6115;49.296;10.602;2022-08-01T08:44:24;24.40;48.60
975;DHT22;6115;49.296;10.602;2022-08-01T08:49:28;24.30;48.50
975;DHT22;6115;49.296;10.602;2022-08-01T08:54:30;24.20;48.90
975;DHT22;6115;49.296;10.602;2022-08-01T08:59:31;24.30;47.60
975;DHT22;6115;49.296;10.602;2022-08-01T09:04:31;24.50;47.60
975;DHT22;6115;49.296;10.602;2022-08-01T09:09:33;24.80;46.80
975;DHT22;6115;49.296;10.602;2022-08-01T09:14:33;24.80;46.30
975;DHT22;6115;49.296;10.602;2022-08-01T09:19:54;24.90;46.20
975;DHT22;6115;49.296;10.602;2022-08-01T09:25:09;25.10;45.70
975;DHT22;6115;49.296;10.602;2022-08-01T09:30:14;24.80;45.90
975;DHT22;6115;49.296;10.602;2022-08-01T09:35:32;24.90;46.40
975;DHT22;6115;49.296;10.602;2022-08-01T09:41:04;25.30;45.10
975;DHT22;6115;49.296;10.602;2022-08-01T09:46:09;25.40;45.20
975;DHT22;6115;49.296;10.602;2022-08-01T09:51:11;25.60;43.90
975;DHT22;6115;49.296;10.602;2022-08-01T09:56:13;25.60;43.50
975;DHT22;6115;49.296;10.602;2022-08-01T10:01:13;26.00;42.80
975;DHT22;6115;49.296;10.602;2022-08-01T10:06:21;25.60;43.90
975;DHT22;6115;49.296;10.602;2022-08-01T10:11:22;25.10;43.60
975;DHT22;6115;49.296;10.602;2022-08-01T10:16:24;25.10;44.40
975;DHT22;6115;49.296;10.602;2022-08-01T10:21:27;25.10;45.00
975;DHT22;6115;49.296;10.602;2022-08-01T10:26:29;25.30;43.70
975;DHT22;6115;49.296;10.602;2022-08-01T10:31:32;25.40;44.20
975;DHT22;6115;49.296;10.602;2022-08-01T10:36:33;25.10;45.00
975;DHT22;6115;49.296;10.602;2022-08-01T10:41:38;25.40;44.90
975;DHT22;6115;49.296;10.602;2022-08-01T10:46:45;26.00;43.10
975;DHT22;6115;49.296;10.602;2022-08-01T10:51:47;26.80;41.40
975;DHT22;6115;49.296;10.602;2022-08-01T10:56:49;26.70;40.80
975;DHT22;6115;49.296;10.602;2022-08-01T11:02:04;26.80;40.40
975;DHT22;6115;49.296;10.602;2022-08-01T11:07:21;27.40;38.60
975;DHT22;6115;49.296;10.602;2022-08-01T11:12:38;27.30;38.30
975;DHT22;6115;49.296;10.602;2022-08-01T11:17:40;27.60;37.90
975;DHT22;6115;49.296;10.602;2022-08-01T11:33:48;28.30;36.10
975;DHT22;6115;49.296;10.602;2022-08-01T11:55:19;29.00;34.70
975;DHT22;6115;49.296;10.602;2022-08-01T12:00:15;29.00;34.90
975;DHT22;6115;49.296;10.602;2022-08-01T12:05:18;28.30;36.00
975;DHT22;6115;49.296;10.602;2022-08-01T12:10:24;29.20;35.80
975;DHT22;6115;49.296;10.602;2022-08-01T12:15:30;29.20;34.10
975;DHT22;6115;49.296;10.602;2022-08-01T12:25:33;29.60;32.70
975;DHT22;6115;49.296;10.602;2022-08-01T12:30:36;29.70;33.30
975;DHT22;6115;49.296;10.602;2022-08-01T12:35:38;29.90;32.10
975;DHT22;6115;49.296;10.602;2022-08-01T12:40:42;29.90;32.10
975;DHT22;6115;49.296;10.602;2022-08-01T12:45:45;29.30;33.70
975;DHT22;6115;49.296;10.602;2022-08-01T12:50:48;29.30;33.20
975;DHT22;6115;49.296;10.602;2022-08-01T12:55:55;28.90;33.60
975;DHT22;6115;49.296;10.602;2022-08-01T13:01:10;28.90;32.80
975;DHT22;6115;49.296;10.602;2022-08-01T13:06:15;28.80;34.70
975;DHT22;6115;49.296;10.602;2022-08-01T13:11:15;28.30;35.10
975;DHT22;6115;49.296;10.602;2022-08-01T13:16:22;27.90;35.60
975;DHT22;6115;49.296;10.602;2022-08-01T13:26:41;28.00;36.30
975;DHT22;6115;49.296;10.602;2022-08-01T13:31:43;28.40;35.60
975;DHT22;6115;49.296;10.602;2022-08-01T13:36:44;28.30;35.80
975;DHT22;6115;49.296;10.602;2022-08-01T13:41:46;28.60;34.80
975;DHT22;6115;49.296;10.602;2022-08-01T13:46:47;28.70;35.00
975;DHT22;6115;49.296;10.602;2022-08-01T13:51:51;29.00;34.50
975;DHT22;6115;49.296;10.602;2022-08-01T13:56:52;29.40;33.80
975;DHT22;6115;49.296;10.602;2022-08-01T14:01:53;29.60;32.60
975;DHT22;6115;49.296;10.602;2022-08-01T14:06:54;29.10;33.80
975;DHT22;6115;49.296;10.602;2022-08-01T14:11:54;29.60;33.50
975;DHT22;6115;49.296;10.602;2022-08-01T14:16:55;29.60;33.00
975;DHT22;6115;49.296;10.602;2022-08-01T14:21:56;29.60;31.40
975;DHT22;6115;49.296;10.602;2022-08-01T14:26:57;29.10;33.00
975;DHT22;6115;49.296;10.602;2022-08-01T14:31:57;29.50;33.80
975;DHT22;6115;49.296;10.602;2022-08-01T14:36:58;30.80;30.90
975;DHT22;6115;49.296;10.602;2022-08-01T14:41:58;30.90;29.50
975;DHT22;6115;49.296;10.602;2022-08-01T14:46:59;31.40;29.70
975;DHT22;6115;49.296;10.602;2022-08-01T14:52:00;32.30;28.90
975;DHT22;6115;49.296;10.602;2022-08-01T14:57:00;32.60;27.30
975;DHT22;6115;49.296;10.602;2022-08-01T15:02:01;31.50;28.20
975;DHT22;6115;49.296;10.602;2022-08-01T15:07:02;31.90;28.00
975;DHT22;6115;49.296;10.602;2022-08-01T15:12:02;32.60;27.50
975;DHT22;6115;49.296;10.602;2022-08-01T15:17:03;32.60;27.40
975;DHT22;6115;49.296;10.602;2022-08-01T15:22:04;31.80;27.00
975;DHT22;6115;49.296;10.602;2022-08-01T15:27:05;30.70;29.10
975;DHT22;6115;49.296;10.602;2022-08-01T15:32:07;30.90;28.40
975;DHT22;6115;49.296;10.602;2022-08-01T15:37:08;30.90;29.10
975;DHT22;6115;49.296;10.602;2022-08-01T15:42:10;30.40;29.20
975;DHT22;6115;49.296;10.602;2022-08-01T15:47:11;30.80;29.40
975;DHT22;6115;49.296;10.602;2022-08-01T15:52:12;30.90;28.70
975;DHT22;6115;49.296;10.602;2022-08-01T15:57:12;30.50;29.30
975;DHT22;6115;49.296;10.602;2022-08-01T16:02:13;30.20;29.50
975;DHT22;6115;49.296;10.602;2022-08-01T16:07:14;29.80;29.50
975;DHT22;6115;49.296;10.602;2022-08-01T16:12:14;29.70;30.30
975;DHT22;6115;49.296;10.602;2022-08-01T16:17:15;29.60;31.10
975;DHT22;6115;49.296;10.602;2022-08-01T16:22:15;29.30;31.80
975;DHT22;6115;49.296;10.602;2022-08-01T16:27:16;29.00;31.70
975;DHT22;6115;49.296;10.602;2022-08-01T16:32:17;28.60;32.70
975;DHT22;6115;49.296;10.602;2022-08-01T16:37:17;28.50;31.80
975;DHT22;6115;49.296;10.602;2022-08-01T16:42:18;28.30;32.10
975;DHT22;6115;49.296;10.602;2022-08-01T16:47:18;28.10;32.40
975;DHT22;6115;49.296;10.602;2022-08-01T16:52:19;28.00;32.50
975;DHT22;6115;49.296;10.602;2022-08-01T16:57:19;27.90;33.00
975;DHT22;6115;49.296;10.602;2022-08-01T17:02:20;28.00;32.80
975;DHT22;6115;49.296;10.602;2022-08-01T17:07:20;28.00;32.30
975;DHT22;6115;49.296;10.602;2022-08-01T17:12:21;27.90;32.10
975;DHT22;6115;49.296;10.602;2022-08-01T17:17:22;27.90;32.00
975;DHT22;6115;49.296;10.602;2022-08-01T17:22:23;27.80;31.60
975;DHT22;6115;49.296;10.602;2022-08-01T17:27:23;27.90;31.80
975;DHT22;6115;49.296;10.602;2022-08-01T17:32:24;27.90;32.40
975;DHT22;6115;49.296;10.602;2022-08-01T17:37:24;27.70;33.20
975;DHT22;6115;49.296;10.602;2022-08-01T17:42:25;27.50;33.40
975;DHT22;6115;49.296;10.602;2022-08-01T17:47:29;27.30;33.30
975;DHT22;6115;49.296;10.602;2022-08-01T17:52:31;27.10;33.90
975;DHT22;6115;49.296;10.602;2022-08-01T17:57:32;26.80;34.30
975;DHT22;6115;49.296;10.602;2022-08-01T18:02:32;26.80;34.60
975;DHT22;6115;49.296;10.602;2022-08-01T18:07:33;26.80;34.70
975;DHT22;6115;49.296;10.602;2022-08-01T18:12:33;26.80;34.90
975;DHT22;6115;49.296;10.602;2022-08-01T18:17:34;26.70;35.20
975;DHT22;6115;49.296;10.602;2022-08-01T18:22:35;26.80;35.20
975;DHT22;6115;49.296;10.602;2022-08-01T18:27:36;26.70;35.60
975;DHT22;6115;49.296;10.602;2022-08-01T18:32:36;26.70;35.90
975;DHT22;6115;49.296;10.602;2022-08-01T18:37:37;26.60;36.10
975;DHT22;6115;49.296;10.602;2022-08-01T18:42:37;26.60;36.30
975;DHT22;6115;49.296;10.602;2022-08-01T18:47:38;26.40;36.20
975;DHT22;6115;49.296;10.602;2022-08-01T18:52:39;26.20;36.10
975;DHT22;6115;49.296;10.602;2022-08-01T18:57:41;26.20;36.10
975;DHT22;6115;49.296;10.602;2022-08-01T19:02:42;26.20;36.10
975;DHT22;6115;49.296;10.602;2022-08-01T19:07:42;26.00;36.90
975;DHT22;6115;49.296;10.602;2022-08-01T19:12:43;26.00;37.40
975;DHT22;6115;49.296;10.602;2022-08-01T19:17:44;25.90;37.20
975;DHT22;6115;49.296;10.602;2022-08-01T19:22:44;25.80;37.80
975;DHT22;6115;49.296;10.602;2022-08-01T19:27:47;25.70;38.70
975;DHT22;6115;49.296;10.602;2022-08-01T19:32:48;25.60;39.00
975;DHT22;6115;49.296;10.602;2022-08-01T19:37:50;25.40;39.80
975;DHT22;6115;49.296;10.602;2022-08-01T19:42:53;25.10;41.30
975;DHT22;6115;49.296;10.602;2022-08-01T19:47:54;25.00;42.30
975;DHT22;6115;49.296;10.602;2022-08-01T19:52:55;24.80;43.00
975;DHT22;6115;49.296;10.602;2022-08-01T19:57:57;24.80;43.60
975;DHT22;6115;49.296;10.602;2022-08-01T20:02:58;24.80;44.20
975;DHT22;6115;49.296;10.602;2022-08-01T20:07:59;24.80;44.80
975;DHT22;6115;49.296;10.602;2022-08-01T20:13:01;24.60;44.60
975;DHT22;6115;49.296;10.602;2022-08-01T20:18:01;24.40;44.40
975;DHT22;6115;49.296;10.602;2022-08-01T20:23:03;24.10;44.80
975;DHT22;6115;49.296;10.602;2022-08-01T20:28:08;24.10;45.60
975;DHT22;6115;49.296;10.602;2022-08-01T20:33:10;23.90;45.90
975;DHT22;6115;49.296;10.602;2022-08-01T20:38:11;23.60;46.90
975;DHT22;6115;49.296;10.602;2022-08-01T20:43:12;23.50;47.30
975;DHT22;6115;49.296;10.602;2022-08-01T20:48:14;23.40;47.30
975;DHT22;6115;49.296;10.602;2022-08-01T20:53:15;23.20;48.00
975;DHT22;6115;49.296;10.602;2022-08-01T20:58:29;23.00;48.40
975;DHT22;6115;49.296;10.602;2022-08-01T21:04:05;22.80;49.20
975;DHT22;6115;49.296;10.602;2022-08-01T21:09:09;22.30;50.20
975;DHT22;6115;49.296;10.602;2022-08-01T21:14:13;22.10;50.80
975;DHT22;6115;49.296;10.602;2022-08-01T21:19:24;21.90;51.60
975;DHT22;6115;49.296;10.602;2022-08-01T21:24:30;22.00;51.70
975;DHT22;6115;49.296;10.602;2022-08-01T21:29:34;21.90;51.60
975;DHT22;6115;49.296;10.602;2022-08-01T21:34:37;21.80;51.60
975;DHT22;6115;49.296;10.602;2022-08-01T21:39:39;21.70;52.30
975;DHT22;6115;49.296;10.602;2022-08-01T21:44:46;21.70;52.70
975;DHT22;6115;49.296;10.602;2022-08-01T21:49:46;21.50;53.30
975;DHT22;6115;49.296;10.602;2022-08-01T22:05:05;21.40;54.40
975;DHT22;6115;49.296;10.602;2022-08-01T22:10:06;21.40;54.30
975;DHT22;6115;49.296;10.602;2022-08-01T22:15:08;21.50;54.40
975;DHT22;6115;49.296;10.602;2022-08-01T22:20:10;21.30;54.70
975;DHT22;6115;49.296;10.602;2022-08-01T22:25:10;21.30;54.90
975;DHT22;6115;49.296;10.602;2022-08-01T22:30:13;21.20;55.40
975;DHT22;6115;49.296;10.602;2022-08-01T22:35:18;21.20;55.60
975;DHT22;6115;49.296;10.602;2022-08-01T22:40:19;21.10;55.50
975;DHT22;6115;49.296;10.602;2022-08-01T22:45:26;20.90;55.90
975;DHT22;6115;49.296;10.602;2022-08-01T22:50:37;20.70;56.60
975;DHT22;6115;49.296;10.602;2022-08-01T22:55:41;20.60;57.10
975;DHT22;6115;49.296;10.602;2022-08-01T23:00:53;20.70;57.20
975;DHT22;6115;49.296;10.602;2022-08-01T23:11:03;20.20;59.90
975;DHT22;6115;49.296;10.602;2022-08-01T23:16:04;20.20;59.20
975;DHT22;6115;49.296;10.602;2022-08-01T23:21:06;20.30;59.30
975;DHT22;6115;49.296;10.602;2022-08-01T23:26:08;20.40;59.00
975;DHT22;6115;49.296;10.602;2022-08-01T23:31:10;20.60;57.90
975;DHT22;6115;49.296;10.602;2022-08-01T23:36:10;20.60;56.90
975;DHT22;6115;49.296;10.602;2022-08-01T23:41:11;20.70;56.80
975;DHT22;6115;49.296;10.602;2022-08-01T23:46:14;20.70;56.60
975;DHT22;6115;49.296;10.602;2022-08-01T23:51:15;20.70;56.60
975;DHT22;6115;49.296;10.602;2022-08-01T23:56:16;20.70;56.80
